Randolph Air Force Base Universal City US
ICAO: KRND
IATA: RND
Category: Large
Scheduled Services: No

Elevation: 761 ft
TransAlt. 18000 ft.

Airport Communications:
SAN ANTONIO APP:39.21
SAN ANTONIO APP:124.45
ATIS:27.18
CLNC DEL:33.835
SAN ANTONIO DEP:127.1
GND:119.75
HANGOVER TWR:120.5
HANGOVER GND:124.75
PMSV METRO:23.98
PTD:37.22
TWR:128.25

KRND Zoom In..

If you have problems with the map follow the link
https://www.worldairports.se/pages/airport.php?
ICAO=KRND

Runways:

(A) RW 14L length 8351 ft width 200 ft
ILS 109.90 / hdg 145

(B) RW 14R length 8353 ft width 200 ft
ILS 111.30 / hdg 145

(C) RW 32L length 8353 ft width 200 ft
ILS 111.10 / hdg 325

(D) RW 32R length 8351 ft width 200 ft
ILS 109.30 / hdg 325

Location; KRND
Day. 22 / Time. 12.56 Zulu
* Altimeter: 30.02
* Temperature: 10° c. 50°f.
* Wind from: 140° Speed 15 kn.
Dewpoint: 10° c.
Visibility: 7 Statute Miles.
Clouds: Overcast 300 ft.
Conditions: Light Rain.

KRND 221256Z AUTO 14015KT 7SM -RA OVC003 10/10 A3002 RMK AO2 CIG 002 RWY15R SLP165 P0011 T01000100


Wind From 140°
Speed 15 kn.

 
 
jpsmedia worldairports.se 2020   terms of use